Time;durP1;ratioP1;P1;durP2;ratioP2;P2;SDS_P1;SDS_P2;PMS_P1;PMS_P2;Temp;Humidity;BMP_temperature;BMP_pressure;BME280_temperature;BME280_humidity;BME280_pressure;Samples;Min_cycle;Max_cycle;Signal;HPM_P1;HPM_P2
2024/01/20 00:04:50;;;;;;;31.03;14.60;;;;;-1.40;102196.00;;;;9797192;30;20247;-83
2024/01/20 00:09:52;;;;;;;33.10;14.70;;;;;-1.40;102196.00;;;;9799311;30;20241;-84
2024/01/20 00:14:54;;;;;;;25.03;11.73;;;;;-1.30;102193.00;;;;9787922;30;20232;-83
2024/01/20 00:19:55;;;;;;;37.97;15.33;;;;;-1.30;102192.00;;;;9792782;30;20260;-84
2024/01/20 00:24:59;;;;;;;26.37;11.27;;;;;-1.20;102193.00;;;;9783454;30;20240;-81
2024/01/20 00:30:01;;;;;;;29.50;14.00;;;;;-1.20;102198.00;;;;9775729;30;20271;-80
2024/01/20 00:35:04;;;;;;;30.97;13.97;;;;;-1.20;102199.00;;;;9792738;30;20809;-81
2024/01/20 00:40:09;;;;;;;30.70;13.07;;;;;-1.20;102199.00;;;;9772951;30;20243;-81
2024/01/20 00:45:11;;;;;;;34.77;15.67;;;;;-1.20;102200.00;;;;9773726;30;20911;-81
2024/01/20 00:50:12;;;;;;;34.33;15.37;;;;;-1.20;102202.00;;;;9769057;30;20442;-81
2024/01/20 00:55:14;;;;;;;37.70;16.67;;;;;-1.10;102194.00;;;;9791613;30;20966;-81
2024/01/20 01:00:15;;;;;;;31.20;14.93;;;;;-1.10;102184.00;;;;9794390;29;20267;-81
2024/01/20 01:05:16;;;;;;;33.20;15.13;;;;;-1.10;102186.00;;;;9773953;30;20240;-81
2024/01/20 01:10:18;;;;;;;37.93;16.73;;;;;-1.20;102203.00;;;;9771030;30;20233;-81
2024/01/20 01:15:19;;;;;;;32.03;13.70;;;;;-1.20;102195.00;;;;9775201;30;20244;-81
2024/01/20 01:20:20;;;;;;;37.20;14.23;;;;;-1.20;102217.00;;;;9808412;29;20256;-81
2024/01/20 01:25:22;;;;;;;34.07;15.07;;;;;-1.20;102215.00;;;;9777400;30;20295;-81
2024/01/20 01:30:23;;;;;;;37.37;14.53;;;;;-1.20;102203.00;;;;9758089;30;20240;-81
2024/01/20 01:35:24;;;;;;;32.23;14.13;;;;;-1.20;102217.00;;;;9775268;30;20235;-85
2024/01/20 01:40:26;;;;;;;34.23;14.33;;;;;-1.20;102221.00;;;;9781276;30;20592;-85
2024/01/20 01:45:27;;;;;;;35.17;15.63;;;;;-1.20;102224.00;;;;9782876;30;20229;-85
2024/01/20 01:50:28;;;;;;;34.73;14.90;;;;;-1.10;102225.00;;;;9775761;30;20236;-85
2024/01/20 01:55:30;;;;;;;34.53;16.33;;;;;-1.10;102233.00;;;;9778165;30;20270;-85
2024/01/20 02:00:31;;;;;;;36.90;16.07;;;;;-1.10;102228.00;;;;9798463;30;20240;-79
2024/01/20 02:05:32;;;;;;;40.60;17.60;;;;;-1.10;102237.00;;;;9795758;30;20244;-80
2024/01/20 02:10:34;;;;;;;38.87;18.40;;;;;-1.10;102248.00;;;;9804609;30;20243;-78
2024/01/20 02:15:36;;;;;;;37.90;17.17;;;;;-1.10;102256.00;;;;9797919;30;20236;-79
2024/01/20 02:20:37;;;;;;;31.03;14.43;;;;;-1.10;102243.00;;;;9792912;30;20263;-78
2024/01/20 02:25:38;;;;;;;39.53;18.47;;;;;-1.10;102246.00;;;;9794148;30;20908;-78
2024/01/20 02:30:43;;;;;;;34.67;15.73;;;;;-1.00;102251.00;;;;9803604;30;20328;-79
2024/01/20 02:35:45;;;;;;;40.77;17.53;;;;;-1.10;102253.00;;;;9811747;29;20320;-78
2024/01/20 02:40:46;;;;;;;40.33;17.30;;;;;-1.10;102255.00;;;;9792450;30;20237;-79
2024/01/20 02:45:47;;;;;;;28.83;13.13;;;;;-1.10;102266.00;;;;9794797;30;20240;-80
2024/01/20 02:50:48;;;;;;;49.90;19.87;;;;;-1.10;102258.00;;;;9792280;30;20237;-78
2024/01/20 02:55:49;;;;;;;28.60;14.03;;;;;-1.10;102264.00;;;;9801608;30;20277;-79
2024/01/20 03:00:50;;;;;;;46.60;20.30;;;;;-1.10;102251.00;;;;9803616;30;20251;-79
2024/01/20 03:05:51;;;;;;;48.23;21.53;;;;;-1.10;102255.00;;;;9794635;30;20237;-78
2024/01/20 03:10:53;;;;;;;38.13;16.93;;;;;-1.10;102253.00;;;;9793091;30;20243;-77
2024/01/20 03:15:54;;;;;;;43.90;18.53;;;;;-1.20;102241.00;;;;9788057;30;20240;-78
2024/01/20 03:20:55;;;;;;;48.90;21.67;;;;;-1.20;102254.00;;;;9790763;30;20900;-86
2024/01/20 03:25:56;;;;;;;50.37;20.90;;;;;-1.20;102266.00;;;;9777342;30;20237;-84
2024/01/20 03:30:58;;;;;;;45.27;19.80;;;;;-1.10;102263.00;;;;9802497;30;20240;-85
2024/01/20 03:35:59;;;;;;;41.97;20.10;;;;;-1.10;102264.00;;;;9782803;30;20233;-85
2024/01/20 03:41:01;;;;;;;40.07;18.30;;;;;-1.10;102273.00;;;;9779528;30;20248;-85
2024/01/20 03:46:02;;;;;;;37.17;18.30;;;;;-1.10;102273.00;;;;9798882;30;20680;-85
2024/01/20 03:51:03;;;;;;;33.93;15.97;;;;;-1.20;102281.00;;;;9765065;30;20953;-85
2024/01/20 03:56:05;;;;;;;38.67;17.63;;;;;-1.20;102278.00;;;;9793818;30;20225;-85
2024/01/20 04:01:06;;;;;;;31.70;16.33;;;;;-1.20;102275.00;;;;9776596;30;20229;-84
2024/01/20 04:06:07;;;;;;;34.90;16.50;;;;;-1.30;102271.00;;;;9781308;30;20714;-85
2024/01/20 04:11:09;;;;;;;35.50;15.40;;;;;-1.30;102270.00;;;;9763193;30;20251;-86
2024/01/20 04:16:10;;;;;;;37.13;17.47;;;;;-1.30;102277.00;;;;9800335;30;20240;-85
2024/01/20 04:21:11;;;;;;;46.60;20.13;;;;;-1.30;102278.00;;;;9771823;30;20228;-85
2024/01/20 04:26:12;;;;;;;43.57;19.70;;;;;-1.20;102274.00;;;;9807720;30;20601;-85
2024/01/20 04:31:13;;;;;;;23.53;10.13;;;;;-1.20;102274.00;;;;9782936;30;20248;-79
2024/01/20 04:36:14;;;;;;;37.40;17.87;;;;;-1.20;102286.00;;;;9776505;30;20241;-78
2024/01/20 04:41:15;;;;;;;38.40;16.73;;;;;-1.30;102288.00;;;;9790838;30;21854;-80
2024/01/20 04:46:17;;;;;;;38.97;20.13;;;;;-1.30;102287.00;;;;9782388;30;21008;-79
2024/01/20 04:51:18;;;;;;;44.07;18.93;;;;;-1.30;102283.00;;;;9787699;30;20236;-78
2024/01/20 04:56:22;;;;;;;39.67;17.83;;;;;-1.20;102280.00;;;;9792555;30;20617;-79
2024/01/20 05:01:23;;;;;;;39.43;17.23;;;;;-1.30;102288.00;;;;9784195;30;20303;-78
2024/01/20 05:06:24;;;;;;;31.57;13.77;;;;;-1.30;102298.00;;;;9788411;30;20233;-79
2024/01/20 05:11:25;;;;;;;37.80;18.53;;;;;-1.30;102307.00;;;;9794629;30;20256;-79
2024/01/20 05:16:26;;;;;;;41.37;18.60;;;;;-1.20;102306.00;;;;9789314;30;20990;-78
2024/01/20 05:21:28;;;;;;;36.07;17.27;;;;;-1.30;102302.00;;;;9776789;30;20298;-79
2024/01/20 05:26:30;;;;;;;34.07;17.17;;;;;-1.30;102309.00;;;;9769651;30;20282;-79
2024/01/20 05:31:32;;;;;;;26.37;13.27;;;;;-1.40;102319.00;;;;9795175;30;20240;-78
2024/01/20 05:36:34;;;;;;;29.03;15.00;;;;;-1.40;102321.00;;;;9793075;30;20239;-78
2024/01/20 05:41:35;;;;;;;28.23;15.33;;;;;-1.40;102326.00;;;;9781959;30;20927;-85
2024/01/20 05:46:36;;;;;;;32.30;16.33;;;;;-1.40;102329.00;;;;9788752;30;20340;-87
2024/01/20 05:51:37;;;;;;;33.63;15.33;;;;;-1.40;102328.00;;;;9789227;30;20264;-87
2024/01/20 05:56:38;;;;;;;26.87;13.50;;;;;-1.40;102330.00;;;;9777442;30;20224;-86
2024/01/20 06:01:39;;;;;;;24.13;12.00;;;;;-1.40;102323.00;;;;9777383;30;20240;-87
2024/01/20 06:06:40;;;;;;;32.83;17.17;;;;;-1.40;102319.00;;;;9774976;30;20229;-89
2024/01/20 06:11:42;;;;;;;28.70;14.20;;;;;-1.50;102326.00;;;;9768769;30;20240;-87
2024/01/20 06:16:43;;;;;;;16.03;9.20;;;;;-1.50;102327.00;;;;9777436;30;20339;-87
2024/01/20 06:21:44;;;;;;;24.10;12.43;;;;;-1.50;102332.00;;;;9772522;30;20302;-87
2024/01/20 06:26:45;;;;;;;39.27;18.40;;;;;-1.40;102347.00;;;;9789911;30;20700;-87
2024/01/20 06:31:46;;;;;;;31.77;15.23;;;;;-1.20;102361.00;;;;9792882;30;20249;-86
2024/01/20 06:36:47;;;;;;;36.63;15.87;;;;;-1.20;102345.00;;;;9792449;30;20316;-87
2024/01/20 06:41:50;;;;;;;27.10;12.33;;;;;-1.20;102359.00;;;;9764134;30;20240;-85
2024/01/20 06:46:51;;;;;;;27.70;14.20;;;;;-1.30;102350.00;;;;9786984;30;20329;-86
2024/01/20 06:51:52;;;;;;;23.63;11.97;;;;;-1.30;102351.00;;;;9797341;30;20236;-81
2024/01/20 06:56:53;;;;;;;41.57;20.27;;;;;-1.30;102361.00;;;;9779033;30;20331;-81
2024/01/20 07:01:54;;;;;;;38.43;18.40;;;;;-1.40;102349.00;;;;9794785;30;20256;-80
2024/01/20 07:06:55;;;;;;;38.83;17.93;;;;;-1.40;102355.00;;;;9791455;30;20243;-80
2024/01/20 07:11:57;;;;;;;39.60;17.40;;;;;-1.50;102347.00;;;;9777801;30;20251;-80
2024/01/20 07:16:59;;;;;;;37.43;16.80;;;;;-1.50;102350.00;;;;9770955;29;20659;-81
2024/01/20 07:22:01;;;;;;;37.13;18.20;;;;;-1.50;102364.00;;;;9795772;30;20240;-80
2024/01/20 07:27:03;;;;;;;34.67;17.33;;;;;-1.50;102392.00;;;;9797156;30;20248;-80
2024/01/20 07:32:04;;;;;;;31.10;15.77;;;;;-1.50;102381.00;;;;9778269;30;20240;-81
2024/01/20 07:37:05;;;;;;;27.47;13.17;;;;;-1.50;102375.00;;;;9796406;30;20240;-81
2024/01/20 07:42:06;;;;;;;30.73;13.37;;;;;-1.50;102374.00;;;;9791889;30;20259;-81
2024/01/20 07:47:08;;;;;;;28.37;13.43;;;;;-1.50;102384.00;;;;9796433;30;20316;-80
2024/01/20 07:52:09;;;;;;;28.77;14.27;;;;;-1.50;102388.00;;;;9776819;30;20251;-80
2024/01/20 07:57:10;;;;;;;29.67;14.20;;;;;-1.50;102400.00;;;;9790027;30;20320;-80
2024/01/20 08:02:11;;;;;;;30.70;13.93;;;;;-1.50;102392.00;;;;9807660;29;20630;-80
2024/01/20 08:07:12;;;;;;;30.37;15.00;;;;;-1.40;102394.00;;;;9790811;30;20940;-79
2024/01/20 08:12:13;;;;;;;21.57;10.13;;;;;-1.30;102397.00;;;;9763149;29;20236;-79
2024/01/20 08:17:15;;;;;;;27.00;12.33;;;;;-1.30;102405.00;;;;9807155;30;20264;-80
2024/01/20 08:22:17;;;;;;;35.20;15.00;;;;;-1.20;102402.00;;;;9774692;30;20961;-79
2024/01/20 08:27:18;;;;;;;25.73;12.30;;;;;-1.10;102409.00;;;;9778573;30;20268;-80
2024/01/20 08:32:20;;;;;;;28.47;13.80;;;;;-1.00;102406.00;;;;9788773;29;20286;-79
2024/01/20 08:37:21;;;;;;;30.70;12.40;;;;;-1.00;102420.00;;;;9775542;30;20294;-79
2024/01/20 08:42:22;;;;;;;28.87;13.67;;;;;-0.90;102433.00;;;;9799349;29;20271;-80
2024/01/20 08:47:23;;;;;;;28.40;13.30;;;;;-0.80;102439.00;;;;9790205;30;20243;-80
2024/01/20 08:52:24;;;;;;;28.27;13.90;;;;;-0.70;102436.00;;;;9800173;30;20243;-79
2024/01/20 08:57:29;;;;;;;30.70;14.30;;;;;-0.60;102439.00;;;;9790636;29;20777;-79
2024/01/20 09:02:31;;;;;;;27.20;13.43;;;;;-0.40;102443.00;;;;9811519;29;20655;-79
2024/01/20 09:07:32;;;;;;;21.13;9.57;;;;;-0.20;102453.00;;;;9774604;30;20265;-80
2024/01/20 09:12:33;;;;;;;24.33;12.87;;;;;-0.30;102437.00;;;;9779014;29;20271;-80
2024/01/20 09:17:34;;;;;;;31.43;12.13;;;;;-0.40;102444.00;;;;9793090;30;20247;-80
2024/01/20 09:22:35;;;;;;;29.57;13.23;;;;;-0.40;102436.00;;;;9774523;30;20240;-79
2024/01/20 09:27:36;;;;;;;28.77;15.40;;;;;-0.30;102452.00;;;;9777947;30;20239;-79
2024/01/20 09:32:38;;;;;;;24.90;13.50;;;;;-0.30;102456.00;;;;9792942;30;20232;-82
2024/01/20 09:37:39;;;;;;;14.23;8.40;;;;;-0.30;102456.00;;;;9794194;29;20240;-80
2024/01/20 09:42:40;;;;;;;23.20;11.40;;;;;-0.30;102475.00;;;;9777813;30;20240;-79
2024/01/20 09:47:42;;;;;;;20.57;12.20;;;;;-0.40;102472.00;;;;9778232;30;20248;-80
2024/01/20 09:52:58;;;;;;;28.20;13.67;;;;;-0.20;102475.00;;;;9773278;30;20252;-79
2024/01/20 09:58:01;;;;;;;24.90;13.40;;;;;0.10;102469.00;;;;9807388;29;20322;-79
2024/01/20 10:03:05;;;;;;;23.30;12.77;;;;;0.70;102476.00;;;;9786208;30;20234;-80
2024/01/20 10:08:09;;;;;;;25.70;13.33;;;;;1.40;102471.00;;;;9795234;29;20228;-78
2024/01/20 10:13:10;;;;;;;20.10;13.07;;;;;1.20;102460.00;;;;9774005;30;20236;-79
2024/01/20 10:18:11;;;;;;;25.23;15.03;;;;;1.80;102482.00;;;;9763569;30;20319;-79
2024/01/20 10:23:13;;;;;;;56.50;19.23;;;;;2.30;102468.00;;;;10311654;24;20215;-89
2024/01/20 10:28:14;;;;;;;22.20;13.97;;;;;2.40;102468.00;;;;9912850;29;20735;-89
2024/01/20 10:33:15;;;;;;;22.83;13.47;;;;;1.90;102474.00;;;;9896826;29;20242;-89
2024/01/20 10:38:21;;;;;;;28.37;13.73;;;;;1.90;102478.00;;;;9914322;29;20309;-89
2024/01/20 10:43:22;;;;;;;26.87;15.50;;;;;2.00;102472.00;;;;9898222;29;20266;-89
2024/01/20 10:48:34;;;;;;;27.27;15.33;;;;;2.30;102472.00;;;;9911360;29;20249;-89
2024/01/20 10:53:36;;;;;;;24.10;16.63;;;;;2.50;102469.00;;;;9912291;29;20250;-90
2024/01/20 10:58:46;;;;;;;22.40;14.13;;;;;2.70;102458.00;;;;9891786;29;20265;-89
2024/01/20 11:03:47;;;;;;;23.07;13.27;;;;;2.90;102450.00;;;;9846539;29;20603;-89
2024/01/20 11:08:52;;;;;;;15.30;11.03;;;;;3.20;102451.00;;;;9878907;29;20227;-89
2024/01/20 11:13:59;;;;;;;17.97;11.37;;;;;3.30;102441.00;;;;9851772;29;20243;-87
2024/01/20 11:19:10;;;;;;;15.40;11.07;;;;;3.10;102429.00;;;;9877356;29;20626;-85
2024/01/20 11:24:12;;;;;;;17.70;10.67;;;;;3.40;102434.00;;;;9861834;29;20239;-88
2024/01/20 11:29:16;;;;;;;16.73;9.30;;;;;3.40;102416.00;;;;9862754;29;20270;-86
2024/01/20 11:34:17;;;;;;;15.27;10.27;;;;;3.40;102419.00;;;;9858975;29;20299;-83
2024/01/20 11:39:20;;;;;;;16.97;9.80;;;;;3.80;102416.00;;;;9867272;29;21362;-83
2024/01/20 11:44:21;;;;;;;18.03;10.93;;;;;4.10;102405.00;;;;9861975;29;20805;-83
2024/01/20 11:49:23;;;;;;;13.10;9.80;;;;;4.00;102409.00;;;;9864582;29;20232;-83
2024/01/20 11:54:24;;;;;;;15.43;10.30;;;;;4.10;102404.00;;;;9863912;29;20996;-84
2024/01/20 11:59:25;;;;;;;17.57;11.80;;;;;4.00;102391.00;;;;9857635;29;20242;-84
2024/01/20 12:04:27;;;;;;;19.10;11.43;;;;;4.40;102394.00;;;;9856828;29;20239;-83
2024/01/20 12:09:28;;;;;;;15.67;10.10;;;;;4.40;102392.00;;;;9860484;29;20251;-84
2024/01/20 12:14:30;;;;;;;14.33;10.27;;;;;4.30;102393.00;;;;9860568;29;20243;-81
2024/01/20 12:19:32;;;;;;;19.63;11.83;;;;;4.00;102394.00;;;;9851118;29;20288;-81
2024/01/20 12:24:36;;;;;;;19.47;10.50;;;;;3.90;102388.00;;;;9846403;29;20881;-83
2024/01/20 12:29:37;;;;;;;16.60;11.30;;;;;4.30;102388.00;;;;9860721;29;20251;-84
2024/01/20 12:34:38;;;;;;;22.30;12.30;;;;;4.20;102387.00;;;;9867628;29;20307;-83
2024/01/20 12:39:40;;;;;;;14.27;10.70;;;;;3.90;102376.00;;;;9860861;29;20231;-84
2024/01/20 12:44:41;;;;;;;16.40;9.80;;;;;4.00;102367.00;;;;9859742;29;20235;-84
2024/01/20 12:49:43;;;;;;;19.60;11.40;;;;;4.10;102358.00;;;;9874185;29;20318;-82
2024/01/20 12:54:44;;;;;;;14.90;10.30;;;;;4.50;102344.00;;;;9863721;29;20241;-84
2024/01/20 12:59:49;;;;;;;15.50;10.17;;;;;4.30;102329.00;;;;9864066;29;20239;-83
2024/01/20 13:04:51;;;;;;;15.70;9.50;;;;;4.30;102334.00;;;;9855042;29;20307;-84
2024/01/20 13:09:52;;;;;;;18.47;10.60;;;;;4.20;102321.00;;;;9859542;29;20897;-85
2024/01/20 13:14:53;;;;;;;17.60;10.43;;;;;4.30;102306.00;;;;9847737;29;20703;-84
2024/01/20 13:19:54;;;;;;;18.37;10.43;;;;;4.40;102308.00;;;;9862745;29;20229;-84
2024/01/20 13:24:57;;;;;;;13.53;8.43;;;;;4.50;102293.00;;;;9862724;29;21038;-84
2024/01/20 13:29:58;;;;;;;13.73;8.97;;;;;4.40;102280.00;;;;9854378;29;20232;-85
2024/01/20 13:34:59;;;;;;;15.37;8.83;;;;;4.30;102296.00;;;;9856318;29;20235;-85
2024/01/20 13:40:04;;;;;;;17.90;9.33;;;;;4.20;102298.00;;;;9870421;29;20227;-85
2024/01/20 13:45:07;;;;;;;14.70;9.37;;;;;4.20;102295.00;;;;9863350;29;20235;-86
2024/01/20 13:50:09;;;;;;;13.53;8.80;;;;;4.00;102293.00;;;;9857252;29;20967;-86
2024/01/20 13:55:12;;;;;;;15.33;7.70;;;;;4.00;102289.00;;;;9857183;29;20351;-84
2024/01/20 14:00:13;;;;;;;11.90;7.77;;;;;3.80;102287.00;;;;9871767;29;20239;-81
2024/01/20 14:05:15;;;;;;;12.57;7.80;;;;;3.60;102281.00;;;;9856951;29;20314;-85
2024/01/20 14:10:16;;;;;;;14.77;8.57;;;;;3.50;102276.00;;;;9854508;29;20227;-85
2024/01/20 14:15:18;;;;;;;14.37;8.53;;;;;3.60;102274.00;;;;9862934;29;20818;-85
2024/01/20 14:20:19;;;;;;;11.03;7.27;;;;;3.60;102273.00;;;;9866509;29;20725;-85
2024/01/20 14:25:20;;;;;;;13.93;8.43;;;;;3.50;102275.00;;;;9860128;29;20291;-85
2024/01/20 14:30:22;;;;;;;14.63;7.90;;;;;3.30;102269.00;;;;9854556;29;20886;-84
2024/01/20 14:35:25;;;;;;;13.07;7.30;;;;;3.00;102265.00;;;;9866387;29;20246;-85
2024/01/20 14:40:26;;;;;;;11.03;7.17;;;;;2.80;102277.00;;;;9847100;29;20722;-85
2024/01/20 14:45:27;;;;;;;13.13;7.60;;;;;2.70;102270.00;;;;9863564;29;20247;-85
2024/01/20 14:50:28;;;;;;;13.83;8.27;;;;;2.50;102258.00;;;;9858155;29;20289;-83
2024/01/20 14:55:29;;;;;;;13.13;7.90;;;;;2.40;102265.00;;;;9852936;29;20254;-85
2024/01/20 15:00:32;;;;;;;14.33;8.23;;;;;2.20;102266.00;;;;9850177;29;20326;-85
2024/01/20 15:05:33;;;;;;;14.37;8.10;;;;;2.20;102266.00;;;;9855408;29;20235;-79
2024/01/20 15:10:35;;;;;;;21.60;11.63;;;;;2.10;102265.00;;;;9869180;29;20273;-80
2024/01/20 15:15:36;;;;;;;16.97;10.93;;;;;2.10;102271.00;;;;9853855;29;20320;-79
2024/01/20 15:20:37;;;;;;;17.53;10.30;;;;;2.00;102259.00;;;;9877361;29;20870;-79
2024/01/20 15:25:39;;;;;;;17.57;10.97;;;;;1.90;102250.00;;;;9844916;29;20959;-79
2024/01/20 15:30:40;;;;;;;19.30;10.50;;;;;1.70;102252.00;;;;9865220;29;20293;-79
2024/01/20 15:35:41;;;;;;;17.73;11.10;;;;;1.50;102255.00;;;;9855634;29;20235;-79
2024/01/20 15:40:43;;;;;;;15.70;10.50;;;;;1.30;102242.00;;;;9853776;29;20241;-82
2024/01/20 15:45:44;;;;;;;18.83;9.80;;;;;1.00;102257.00;;;;9845437;29;20615;-82
2024/01/20 15:50:45;;;;;;;15.53;9.73;;;;;0.80;102263.00;;;;9846582;29;20339;-79
2024/01/20 15:55:46;;;;;;;15.33;9.90;;;;;0.60;102263.00;;;;9872475;29;20658;-79
2024/01/20 16:00:48;;;;;;;19.10;9.37;;;;;0.40;102244.00;;;;9850788;29;20392;-80
2024/01/20 16:05:49;;;;;;;14.40;8.33;;;;;0.20;102241.00;;;;9866982;29;20277;-81
2024/01/20 16:10:50;;;;;;;17.33;9.33;;;;;0.10;102244.00;;;;9879190;29;20247;-83
2024/01/20 16:15:51;;;;;;;17.10;9.57;;;;;-0.20;102242.00;;;;9857692;29;20238;-83
2024/01/20 16:20:52;;;;;;;16.03;9.67;;;;;-0.50;102234.00;;;;9860001;29;20313;-84
2024/01/20 16:25:53;;;;;;;14.87;9.63;;;;;-0.80;102235.00;;;;9857429;29;20310;-83
2024/01/20 16:30:54;;;;;;;17.00;10.83;;;;;-1.10;102227.00;;;;9854552;29;20318;-83
2024/01/20 16:35:58;;;;;;;18.67;10.70;;;;;-1.20;102234.00;;;;9867306;29;20326;-84
2024/01/20 16:40:59;;;;;;;16.93;10.17;;;;;-1.30;102230.00;;;;9847942;29;20984;-82
2024/01/20 16:46:01;;;;;;;16.13;9.80;;;;;-1.40;102224.00;;;;9827205;29;20976;-82
2024/01/20 16:51:03;;;;;;;16.47;10.27;;;;;-1.50;102224.00;;;;9850119;29;20338;-81
2024/01/20 16:56:13;;;;;;;20.43;10.50;;;;;-1.50;102217.00;;;;9859306;29;20235;-83
2024/01/20 17:01:14;;;;;;;19.10;9.90;;;;;-1.50;102211.00;;;;9885580;29;20240;-81
2024/01/20 17:06:19;;;;;;;17.23;11.27;;;;;-1.50;102206.00;;;;9838359;29;20231;-81
2024/01/20 17:11:20;;;;;;;24.03;14.03;;;;;-1.50;102208.00;;;;9858900;29;20227;-80
2024/01/20 17:16:21;;;;;;;25.17;13.40;;;;;-1.50;102196.00;;;;9842463;29;20311;-83
2024/01/20 17:21:23;;;;;;;25.07;13.63;;;;;-1.50;102200.00;;;;9844596;29;20239;-80
2024/01/20 17:26:26;;;;;;;21.53;11.87;;;;;-1.50;102191.00;;;;9860359;29;20687;-81
2024/01/20 17:31:32;;;;;;;18.50;10.37;;;;;-1.40;102191.00;;;;9860079;29;20243;-80
2024/01/20 17:36:33;;;;;;;18.83;12.23;;;;;-1.30;102189.00;;;;9868413;29;20842;-80
2024/01/20 17:41:34;;;;;;;25.67;14.50;;;;;-1.40;102181.00;;;;9871494;29;20378;-79
2024/01/20 17:46:36;;;;;;;19.87;12.77;;;;;-1.40;102169.00;;;;9859896;29;20231;-81
2024/01/20 17:51:37;;;;;;;23.63;12.60;;;;;-1.50;102172.00;;;;9867092;29;20865;-79
2024/01/20 17:56:38;;;;;;;21.03;11.90;;;;;-1.60;102176.00;;;;9862978;29;20935;-78
2024/01/20 18:01:39;;;;;;;26.33;15.07;;;;;-1.70;102159.00;;;;9838677;29;20249;-79
2024/01/20 18:06:41;;;;;;;25.00;14.23;;;;;-1.80;102176.00;;;;9837704;29;20312;-80
2024/01/20 18:11:44;;;;;;;23.00;14.33;;;;;-2.00;102169.00;;;;9840615;29;20243;-79
2024/01/20 18:16:45;;;;;;;25.07;14.40;;;;;-2.10;102164.00;;;;9850938;29;20946;-80
2024/01/20 18:21:47;;;;;;;21.63;14.07;;;;;-2.20;102146.00;;;;9847428;29;20231;-77
2024/01/20 18:26:48;;;;;;;25.90;13.77;;;;;-2.20;102156.00;;;;9856606;29;20296;-76
2024/01/20 18:31:49;;;;;;;28.10;15.43;;;;;-2.30;102152.00;;;;9854841;29;20330;-79
2024/01/20 18:36:51;;;;;;;28.13;14.77;;;;;-2.20;102150.00;;;;9846238;29;20310;-77
2024/01/20 18:41:52;;;;;;;21.60;11.87;;;;;-2.20;102140.00;;;;9854976;29;20314;-82
2024/01/20 18:46:53;;;;;;;20.83;11.10;;;;;-2.10;102129.00;;;;9872732;29;20315;-83
2024/01/20 18:51:59;;;;;;;17.73;10.03;;;;;-1.90;102112.00;;;;9861478;29;20933;-82
2024/01/20 18:57:01;;;;;;;17.80;11.13;;;;;-1.90;102110.00;;;;9859245;29;20243;-82
2024/01/20 19:02:02;;;;;;;19.40;11.17;;;;;-1.90;102121.00;;;;9861000;29;20774;-82
2024/01/20 19:07:07;;;;;;;19.30;10.30;;;;;-2.00;102107.00;;;;9867351;29;20227;-82
2024/01/20 19:12:08;;;;;;;17.03;9.87;;;;;-2.00;102102.00;;;;9858952;29;20326;-82
2024/01/20 19:17:14;;;;;;;22.87;10.30;;;;;-2.00;102085.00;;;;9840527;29;20231;-82
2024/01/20 19:22:15;;;;;;;19.67;10.53;;;;;-2.00;102086.00;;;;9859605;29;20237;-82
2024/01/20 19:27:16;;;;;;;18.10;10.73;;;;;-1.90;102078.00;;;;9860949;29;20230;-83
2024/01/20 19:32:17;;;;;;;15.40;9.47;;;;;-1.90;102076.00;;;;9854398;29;20232;-82
2024/01/20 19:37:18;;;;;;;12.33;7.60;;;;;-1.70;102053.00;;;;9866587;29;20337;-83
2024/01/20 19:42:19;;;;;;;13.90;7.07;;;;;-1.50;102048.00;;;;9874508;29;20243;-82
2024/01/20 19:47:20;;;;;;;8.93;6.60;;;;;-1.30;102051.00;;;;9870232;29;20288;-84
2024/01/20 19:52:22;;;;;;;10.23;6.23;;;;;-1.10;102061.00;;;;9851354;29;20929;-79
2024/01/20 19:57:24;;;;;;;9.30;5.80;;;;;-0.90;102060.00;;;;9840148;29;20235;-79
2024/01/20 20:02:27;;;;;;;8.37;5.40;;;;;-0.80;102058.00;;;;9854736;29;20458;-78
2024/01/20 20:07:29;;;;;;;12.20;6.60;;;;;-0.70;102051.00;;;;9887525;29;20318;-79
2024/01/20 20:12:30;;;;;;;10.33;7.13;;;;;-0.60;102051.00;;;;9871752;29;20691;-79
2024/01/20 20:17:32;;;;;;;11.43;6.73;;;;;-0.60;102030.00;;;;9852453;29;20247;-78
2024/01/20 20:22:33;;;;;;;10.17;6.60;;;;;-0.60;102020.00;;;;9884704;29;20313;-79
2024/01/20 20:27:34;;;;;;;8.53;6.53;;;;;-0.50;102008.00;;;;9854090;29;20235;-78
2024/01/20 20:32:38;;;;;;;10.73;6.30;;;;;-0.50;101993.00;;;;9864383;29;20248;-80
2024/01/20 20:37:41;;;;;;;10.47;6.00;;;;;-0.40;101981.00;;;;9866954;29;20246;-79
2024/01/20 20:42:42;;;;;;;9.90;6.37;;;;;-0.40;101978.00;;;;9873815;29;20266;-79
2024/01/20 20:47:44;;;;;;;9.17;6.17;;;;;-0.40;101972.00;;;;9875770;29;20656;-79
2024/01/20 20:52:46;;;;;;;8.70;5.37;;;;;-0.50;101970.00;;;;9838637;29;20243;-79
2024/01/20 20:57:47;;;;;;;9.97;5.00;;;;;-0.50;101964.00;;;;9865892;29;20349;-79
2024/01/20 21:02:49;;;;;;;9.90;5.70;;;;;-0.60;101966.00;;;;9854908;29;20234;-88
2024/01/20 21:07:50;;;;;;;10.63;6.50;;;;;-0.70;101974.00;;;;9846512;29;20247;-88
2024/01/20 21:12:52;;;;;;;9.90;5.87;;;;;-0.90;101955.00;;;;9862681;29;20751;-88
2024/01/20 21:17:54;;;;;;;12.13;7.03;;;;;-1.00;101950.00;;;;9867718;29;20235;-89
2024/01/20 21:22:55;;;;;;;10.47;5.70;;;;;-1.00;101948.00;;;;9886845;29;20279;-88
2024/01/20 21:27:57;;;;;;;11.93;6.73;;;;;-1.00;101939.00;;;;9864379;29;20318;-87
2024/01/20 21:32:58;;;;;;;10.33;6.57;;;;;-1.00;101928.00;;;;9833307;29;20246;-89
2024/01/20 21:38:01;;;;;;;10.20;5.00;;;;;-0.90;101927.00;;;;9837501;29;20246;-87
2024/01/20 21:43:04;;;;;;;8.67;4.73;;;;;-0.80;101917.00;;;;9819608;29;20297;-87
2024/01/20 21:48:06;;;;;;;8.50;4.63;;;;;-0.80;101918.00;;;;9864966;29;20291;-88
2024/01/20 21:53:08;;;;;;;8.10;4.40;;;;;-0.80;101913.00;;;;9839040;29;20325;-88
2024/01/20 21:58:10;;;;;;;5.83;3.33;;;;;-0.70;101909.00;;;;9841570;29;20234;-87
2024/01/20 22:03:13;;;;;;;5.33;3.20;;;;;-0.60;101900.00;;;;9833170;29;20241;-88
2024/01/20 22:08:16;;;;;;;6.67;3.60;;;;;-0.50;101902.00;;;;9855425;29;20239;-86
2024/01/20 22:13:19;;;;;;;5.33;3.50;;;;;-0.40;101888.00;;;;9844467;29;20250;-82
2024/01/20 22:18:20;;;;;;;5.27;3.17;;;;;-0.40;101879.00;;;;9870642;29;20322;-82
2024/01/20 22:23:22;;;;;;;5.30;3.07;;;;;-0.40;101864.00;;;;9862107;29;20227;-81
2024/01/20 22:28:23;;;;;;;6.63;3.27;;;;;-0.30;101865.00;;;;9857159;29;20263;-81
2024/01/20 22:33:24;;;;;;;4.90;3.23;;;;;-0.30;101856.00;;;;9851450;29;20245;-81
2024/01/20 22:38:28;;;;;;;5.30;2.90;;;;;-0.40;101842.00;;;;9875939;29;20312;-82
2024/01/20 22:43:29;;;;;;;6.40;3.60;;;;;-0.30;101837.00;;;;9875038;29;20255;-83
2024/01/20 22:48:34;;;;;;;4.87;3.03;;;;;-0.40;101833.00;;;;9874694;29;20482;-81
2024/01/20 22:53:37;;;;;;;3.20;2.40;;;;;-0.40;101836.00;;;;9890533;29;20326;-82
2024/01/20 22:58:39;;;;;;;6.00;3.80;;;;;-0.30;101841.00;;;;9850559;29;20325;-82
2024/01/20 23:03:40;;;;;;;6.77;3.47;;;;;-0.30;101838.00;;;;9856359;29;20226;-81
2024/01/20 23:08:41;;;;;;;5.93;3.30;;;;;-0.40;101843.00;;;;9863726;29;20997;-83
2024/01/20 23:13:42;;;;;;;5.90;3.17;;;;;-0.40;101836.00;;;;9838505;29;20262;-81
2024/01/20 23:18:44;;;;;;;7.80;3.43;;;;;-0.40;101824.00;;;;9838335;29;20235;-81
2024/01/20 23:23:45;;;;;;;7.77;3.20;;;;;-0.40;101831.00;;;;9862304;29;20983;-82
2024/01/20 23:28:46;;;;;;;6.17;3.30;;;;;-0.40;101820.00;;;;9840781;29;20754;-82
2024/01/20 23:33:47;;;;;;;5.30;3.10;;;;;-0.40;101815.00;;;;9843472;29;20678;-83
2024/01/20 23:38:49;;;;;;;6.30;4.10;;;;;-0.30;101802.00;;;;9864388;29;20237;-82
2024/01/20 23:43:50;;;;;;;5.73;3.53;;;;;-0.30;101776.00;;;;9876675;29;20245;-81
2024/01/20 23:48:51;;;;;;;6.67;3.77;;;;;-0.30;101784.00;;;;9856793;29;20715;-83
2024/01/20 23:53:52;;;;;;;7.17;4.70;;;;;-0.30;101771.00;;;;9856720;29;20247;-81
2024/01/20 23:58:54;;;;;;;11.47;4.30;;;;;-0.30;101753.00;;;;9875922;29;20710;-82
